Time;durP1;ratioP1;P1;durP2;ratioP2;P2;SDS_P1;SDS_P2;PMS_P1;PMS_P2;Temp;Humidity;BMP_temperature;BMP_pressure;BME280_temperature;BME280_humidity;BME280_pressure;Samples;Min_cycle;Max_cycle;Signal;HPM_P1;HPM_P2
2023/07/25 00:01:03;;;;;;;3.00;2.70;;;;;;;17.75;100.00;95602.66;4961565;28;105647;-66
2023/07/25 00:03:30;;;;;;;2.70;2.50;;;;;;;17.82;100.00;95595.72;4973187;28;102861;-66
2023/07/25 00:05:57;;;;;;;2.77;2.40;;;;;;;17.85;100.00;95591.63;4972272;28;105135;-66
2023/07/25 00:08:23;;;;;;;4.13;2.60;;;;;;;18.05;100.00;95591.78;4992802;28;101925;-67
2023/07/25 00:10:50;;;;;;;4.00;2.40;;;;;;;18.08;100.00;95593.06;4977936;28;102907;-70
2023/07/25 00:13:17;;;;;;;4.93;2.60;;;;;;;17.91;100.00;95584.97;4954764;28;105984;-69
2023/07/25 00:15:46;;;;;;;3.40;2.93;;;;;;;17.98;100.00;95579.94;4955212;28;101963;-69
2023/07/25 00:18:13;;;;;;;4.77;2.73;;;;;;;18.01;100.00;95561.25;4955076;28;105578;-69
2023/07/25 00:20:39;;;;;;;3.77;2.70;;;;;;;18.27;100.00;95550.47;4990110;28;102572;-69
2023/07/25 00:23:06;;;;;;;3.90;3.13;;;;;;;18.41;100.00;95534.94;4996344;28;101848;-69
2023/07/25 00:25:33;;;;;;;3.10;2.77;;;;;;;18.53;100.00;95543.19;4974334;28;105688;-69
2023/07/25 00:28:01;;;;;;;4.87;2.90;;;;;;;18.39;100.00;95542.56;4974085;28;102047;-69
2023/07/25 00:30:29;;;;;;;2.50;2.30;;;;;;;18.10;100.00;95535.13;4971202;28;103612;-70
2023/07/25 00:32:57;;;;;;;3.83;2.50;;;;;;;18.32;100.00;95531.50;4967048;28;105830;-71
2023/07/25 00:35:25;;;;;;;3.47;2.73;;;;;;;18.10;100.00;95518.19;4974390;28;101927;-72
2023/07/25 00:37:51;;;;;;;3.20;2.70;;;;;;;17.99;100.00;95516.94;4974637;28;105371;-72
2023/07/25 00:40:19;;;;;;;2.63;2.10;;;;;;;18.25;100.00;95520.41;4973668;28;105431;-72
2023/07/25 00:42:46;;;;;;;2.83;2.50;;;;;;;18.20;100.00;95512.50;4974218;28;101964;-70
2023/07/25 00:45:13;;;;;;;2.50;2.30;;;;;;;17.89;100.00;95512.69;4976938;28;105442;-70
2023/07/25 00:47:40;;;;;;;3.30;2.43;;;;;;;17.76;100.00;95526.28;4974421;28;101791;-70
2023/07/25 00:50:11;;;;;;;3.53;2.50;;;;;;;17.67;100.00;95536.25;4981683;28;105295;-70
2023/07/25 00:52:38;;;;;;;4.60;2.73;;;;;;;18.02;100.00;95533.25;4973735;28;107036;-69
2023/07/25 00:55:07;;;;;;;3.17;2.73;;;;;;;17.93;100.00;95521.69;4974364;28;101905;-69
2023/07/25 00:57:35;;;;;;;4.57;2.30;;;;;;;17.86;100.00;95509.81;4974118;28;105392;-69
2023/07/25 01:00:02;;;;;;;3.03;2.37;;;;;;;18.04;100.00;95514.09;4973030;28;105427;-69
2023/07/25 01:02:29;;;;;;;2.70;2.50;;;;;;;18.03;100.00;95507.13;4974340;28;102106;-69
2023/07/25 01:04:56;;;;;;;2.83;2.47;;;;;;;18.14;100.00;95508.41;4973554;28;105112;-69
2023/07/25 01:07:26;;;;;;;4.20;2.60;;;;;;;18.06;100.00;95507.28;4976819;28;105734;-69
2023/07/25 01:09:53;;;;;;;3.13;2.60;;;;;;;18.06;100.00;95503.78;4970430;28;103826;-69
2023/07/25 01:12:20;;;;;;;2.40;2.23;;;;;;;18.17;100.00;95500.47;4972649;28;105541;-70
2023/07/25 01:14:48;;;;;;;2.67;2.40;;;;;;;18.17;100.00;95491.59;4973890;28;102087;-70
2023/07/25 01:17:18;;;;;;;3.03;2.80;;;;;;;18.04;100.00;95489.88;4973878;28;106704;-70
2023/07/25 01:19:48;;;;;;;2.73;2.53;;;;;;;17.97;100.00;95487.66;4983197;28;103140;-70
2023/07/25 01:22:15;;;;;;;2.50;2.30;;;;;;;17.73;100.00;95483.88;4938229;28;101965;-70
2023/07/25 01:24:46;;;;;;;3.10;2.80;;;;;;;17.67;100.00;95485.16;4964028;28;105538;-69
2023/07/25 01:27:13;;;;;;;2.50;2.30;;;;;;;17.59;100.00;95477.84;4994272;28;102766;-70
2023/07/25 01:29:41;;;;;;;2.80;2.60;;;;;;;17.55;100.00;95479.63;4973449;28;105625;-71
2023/07/25 01:32:10;;;;;;;3.60;2.63;;;;;;;17.76;100.00;95481.34;4971084;28;105687;-70
2023/07/25 01:34:37;;;;;;;4.50;2.80;;;;;;;17.79;100.00;95478.03;4954054;28;102157;-77
2023/07/25 01:37:06;;;;;;;2.47;2.27;;;;;;;17.53;100.00;95473.75;4954077;28;105150;-78
2023/07/25 01:39:33;;;;;;;3.13;2.40;;;;;;;17.70;100.00;95469.16;4953295;28;105218;-77
2023/07/25 01:42:01;;;;;;;3.23;2.40;;;;;;;17.29;100.00;95459.94;4965137;28;101886;-78
2023/07/25 01:44:28;;;;;;;2.83;2.60;;;;;;;17.51;100.00;95457.16;4971446;28;105315;-78
2023/07/25 01:46:56;;;;;;;3.07;2.73;;;;;;;17.54;100.00;95448.47;4990846;28;103078;-77
2023/07/25 01:49:23;;;;;;;2.73;2.30;;;;;;;17.49;100.00;95454.00;4976361;28;102050;-77
2023/07/25 01:51:50;;;;;;;3.53;2.70;;;;;;;17.52;100.00;95464.09;4973004;28;105449;-77
2023/07/25 01:54:17;;;;;;;2.97;2.60;;;;;;;17.40;100.00;95477.38;4956850;28;101894;-77
2023/07/25 01:56:44;;;;;;;3.13;2.60;;;;;;;17.38;100.00;95487.63;4961459;28;104923;-78
2023/07/25 01:59:13;;;;;;;2.93;2.60;;;;;;;17.20;100.00;95492.19;4972613;28;106125;-76
2023/07/25 02:01:40;;;;;;;2.90;2.70;;;;;;;17.20;100.00;95513.69;4973388;28;102118;-72
2023/07/25 02:04:07;;;;;;;4.43;2.80;;;;;;;17.09;100.00;95511.56;4972921;28;105267;-72
2023/07/25 02:06:34;;;;;;;2.97;2.67;;;;;;;16.97;100.00;95527.50;4972581;28;105979;-72
2023/07/25 02:09:01;;;;;;;3.03;2.70;;;;;;;16.84;100.00;95536.47;4983882;28;101908;-72
2023/07/25 02:11:28;;;;;;;5.27;2.80;;;;;;;16.79;100.00;95548.13;4956286;28;105430;-72
2023/07/25 02:13:55;;;;;;;3.17;2.47;;;;;;;16.72;100.00;95537.03;4966002;28;102040;-71
2023/07/25 02:16:25;;;;;;;4.10;2.50;;;;;;;16.76;100.00;95526.47;4973832;28;101852;-71
2023/07/25 02:18:52;;;;;;;3.40;2.77;;;;;;;16.73;100.00;95527.09;4971563;28;105693;-72
2023/07/25 02:21:20;;;;;;;2.73;2.53;;;;;;;16.69;100.00;95529.63;4972860;28;101984;-69
2023/07/25 02:23:47;;;;;;;3.47;2.73;;;;;;;17.01;100.00;95526.56;4969272;28;103655;-69
2023/07/25 02:26:14;;;;;;;4.63;3.17;;;;;;;17.24;100.00;95532.66;4956909;28;104005;-69
2023/07/25 02:28:41;;;;;;;4.47;3.00;;;;;;;16.94;100.00;95528.13;4953166;28;101904;-68
2023/07/25 02:31:08;;;;;;;2.87;2.53;;;;;;;16.89;100.00;95533.66;4953092;28;105644;-68
2023/07/25 02:33:36;;;;;;;3.13;2.77;;;;;;;16.89;100.00;95541.72;4965581;28;105900;-68
2023/07/25 02:36:03;;;;;;;4.43;2.90;;;;;;;17.41;100.00;95532.72;4972832;28;105380;-70
2023/07/25 02:38:31;;;;;;;3.17;2.87;;;;;;;17.34;100.00;95521.59;4972102;28;105848;-70
2023/07/25 02:40:58;;;;;;;2.90;2.60;;;;;;;17.03;100.00;95520.88;4972732;28;101970;-70
2023/07/25 02:43:25;;;;;;;3.10;2.70;;;;;;;17.09;100.00;95522.31;4972344;28;105601;-70
2023/07/25 02:45:54;;;;;;;3.57;3.03;;;;;;;17.74;100.00;95493.53;4971913;28;105438;-72
2023/07/25 02:48:21;;;;;;;4.47;3.27;;;;;;;17.81;100.00;95478.50;4972441;28;101884;-72
2023/07/25 02:50:50;;;;;;;6.07;3.17;;;;;;;17.96;100.00;95461.06;4972163;28;105302;-72
2023/07/25 02:53:17;;;;;;;2.93;2.63;;;;;;;17.55;100.00;95441.97;4970978;28;105837;-68
2023/07/25 02:55:44;;;;;;;4.60;2.67;;;;;;;17.86;100.00;95443.38;4975775;28;101932;-68
2023/07/25 02:58:12;;;;;;;3.50;3.20;;;;;;;18.17;100.00;95440.47;4971782;28;105607;-68
2023/07/25 03:00:39;;;;;;;4.67;3.20;;;;;;;18.02;100.00;95446.34;4972323;28;102072;-69
2023/07/25 03:03:06;;;;;;;11.20;2.90;;;;;;;18.02;100.00;95439.06;4968488;28;103851;-69
2023/07/25 03:05:33;;;;;;;3.43;3.07;;;;;;;18.01;100.00;95428.63;4952293;28;105729;-69
2023/07/25 03:08:01;;;;;;;3.73;2.90;;;;;;;18.23;100.00;95410.38;4952943;28;101899;-69
2023/07/25 03:10:28;;;;;;;4.27;2.67;;;;;;;18.18;100.00;95407.06;4952696;28;104994;-69
2023/07/25 03:12:56;;;;;;;3.50;3.20;;;;;;;18.24;100.00;95403.06;4953723;28;105683;-72
2023/07/25 03:15:23;;;;;;;3.30;2.90;;;;;;;18.08;100.00;95378.59;4972396;28;101997;-72
2023/07/25 03:17:50;;;;;;;3.00;2.70;;;;;;;18.27;100.00;95348.63;4974651;28;105826;-74
2023/07/25 03:20:17;;;;;;;4.30;3.10;;;;;;;18.17;100.00;95363.22;4972266;28;102016;-74
2023/07/25 03:22:44;;;;;;;3.43;2.70;;;;;;;17.79;100.00;95410.81;4974123;28;104284;-66
2023/07/25 03:25:12;;;;;;;2.60;2.40;;;;;;;17.15;100.00;95433.22;4955260;28;105632;-66
2023/07/25 03:27:40;;;;;;;5.07;2.70;;;;;;;17.17;100.00;95441.75;4956198;28;102018;-76
2023/07/25 03:30:08;;;;;;;3.40;2.73;;;;;;;17.29;100.00;95427.72;4956331;28;105105;-67
2023/07/25 03:32:35;;;;;;;3.40;3.10;;;;;;;17.31;100.00;95417.41;4972968;28;102566;-68
2023/07/25 03:35:04;;;;;;;3.47;2.97;;;;;;;17.43;100.00;95418.41;4974649;28;101976;-68
2023/07/25 03:37:31;;;;;;;3.53;2.80;;;;;;;17.61;100.00;95424.59;4977172;28;105464;-74
2023/07/25 03:39:58;;;;;;;4.40;2.77;;;;;;;17.74;100.00;95415.53;4955630;28;101962;-75
2023/07/25 03:42:26;;;;;;;5.13;2.83;;;;;;;17.75;100.00;95434.06;4972911;28;105188;-70
2023/07/25 03:44:53;;;;;;;8.60;3.57;;;;;;;18.08;100.00;95434.31;4974774;28;105213;-70
2023/07/25 03:47:21;;;;;;;6.83;3.33;;;;;;;18.06;100.00;95404.25;4993340;28;101777;-76
2023/07/25 03:49:49;;;;;;;5.80;3.47;;;;;;;17.99;100.00;95385.13;4974919;28;105811;-72
2023/07/25 03:52:16;;;;;;;4.27;3.50;;;;;;;18.06;100.00;95374.66;4977862;28;102538;-72
2023/07/25 03:54:43;;;;;;;5.83;3.33;;;;;;;17.80;100.00;95352.41;4973971;28;101900;-76
2023/07/25 03:57:10;;;;;;;3.50;3.00;;;;;;;17.27;100.00;95406.50;4975027;28;105694;-76
2023/07/25 03:59:38;;;;;;;3.30;2.93;;;;;;;16.96;100.00;95434.63;4977761;28;105410;-77
2023/07/25 04:02:05;;;;;;;4.50;3.30;;;;;;;16.94;100.00;95452.94;4971862;28;104924;-76
2023/07/25 04:04:32;;;;;;;4.53;3.23;;;;;;;16.79;100.00;95445.31;4954715;28;105152;-77
2023/07/25 04:06:59;;;;;;;4.67;3.23;;;;;;;16.98;100.00;95440.44;4955358;28;101962;-77
2023/07/25 04:09:26;;;;;;;4.70;3.40;;;;;;;17.41;100.00;95425.22;4972693;28;101746;-77
2023/07/25 04:11:53;;;;;;;6.13;3.33;;;;;;;17.54;100.00;95435.03;4954515;28;105951;-76
2023/07/25 04:14:20;;;;;;;5.67;3.50;;;;;;;17.65;100.00;95430.91;4955254;28;102148;-76
2023/07/25 04:16:49;;;;;;;6.13;3.23;;;;;;;17.71;100.00;95433.09;4956498;28;105583;-76
2023/07/25 04:19:16;;;;;;;5.33;3.57;;;;;;;18.08;100.00;95423.53;4968030;28;105397;-69
2023/07/25 04:21:43;;;;;;;5.03;3.37;;;;;;;17.80;100.00;95414.25;4994565;28;102351;-69
2023/07/25 04:24:10;;;;;;;5.27;3.50;;;;;;;17.69;100.00;95415.69;4989953;28;104400;-69
2023/07/25 04:26:38;;;;;;;3.83;3.47;;;;;;;17.44;100.00;95428.06;4974547;28;101956;-69
2023/07/25 04:29:05;;;;;;;5.17;3.70;;;;;;;17.52;100.00;95432.66;4965148;28;105472;-69
2023/07/25 04:31:32;;;;;;;4.17;3.60;;;;;;;17.56;100.00;95427.44;4954350;28;105872;-68
2023/07/25 04:34:01;;;;;;;4.43;3.90;;;;;;;17.25;100.00;95422.19;4954801;28;102012;-69
2023/07/25 04:36:29;;;;;;;4.90;3.60;;;;;;;17.23;100.00;95426.28;4963628;28;105676;-69
2023/07/25 04:38:57;;;;;;;4.77;3.70;;;;;;;16.89;100.00;95410.13;4965750;28;105874;-69
2023/07/25 04:41:24;;;;;;;3.90;3.50;;;;;;;16.79;100.00;95418.47;4965865;28;101979;-70
2023/07/25 04:43:52;;;;;;;3.73;3.27;;;;;;;16.79;100.00;95416.56;4977354;28;104519;-72
2023/07/25 04:46:19;;;;;;;4.40;3.40;;;;;;;16.86;100.00;95427.66;4974274;28;101988;-72
2023/07/25 04:48:46;;;;;;;3.60;3.30;;;;;;;16.90;100.00;95425.13;4955881;28;104249;-75
2023/07/25 04:51:14;;;;;;;4.70;3.40;;;;;;;17.00;100.00;95435.56;4955000;28;103045;-75
2023/07/25 04:53:41;;;;;;;4.90;3.37;;;;;;;17.30;100.00;95429.28;4967057;28;102040;-75
2023/07/25 04:56:08;;;;;;;5.23;3.40;;;;;;;17.86;100.00;95423.75;4974250;28;103899;-75
2023/07/25 04:58:38;;;;;;;6.20;3.43;;;;;;;17.79;100.00;95431.50;4967665;28;105469;-76
2023/07/25 05:01:05;;;;;;;9.93;4.00;;;;;;;17.96;100.00;95424.22;4962341;28;102105;-77
2023/07/25 05:03:32;;;;;;;3.87;3.57;;;;;;;17.91;100.00;95418.19;4966356;28;104929;-77
2023/07/25 05:05:59;;;;;;;4.70;3.77;;;;;;;17.75;100.00;95419.81;4977010;28;105020;-77
2023/07/25 05:08:27;;;;;;;3.93;3.57;;;;;;;17.55;100.00;95423.16;4992190;28;102605;-76
2023/07/25 05:10:54;;;;;;;5.60;3.47;;;;;;;18.29;100.00;95413.66;4973411;28;105630;-75
2023/07/25 05:13:21;;;;;;;5.67;3.60;;;;;;;18.49;100.00;95415.69;4973633;28;101988;-75
2023/07/25 05:15:49;;;;;;;3.60;3.20;;;;;;;18.47;100.00;95404.47;4966589;28;105631;-75
2023/07/25 05:18:16;;;;;;;5.60;3.13;;;;;;;18.91;100.00;95407.41;4953946;28;104612;-75
2023/07/25 05:20:43;;;;;;;3.80;3.23;;;;;;;18.73;100.00;95386.25;4954238;28;102030;-75
2023/07/25 05:23:10;;;;;;;3.17;2.87;;;;;;;18.79;100.00;95379.56;4957727;28;105810;-76
2023/07/25 05:25:39;;;;;;;5.20;3.33;;;;;;;18.76;100.00;95361.38;4967232;28;104530;-76
2023/07/25 05:28:16;;;;;;;3.47;3.17;;;;;;;19.01;100.00;95352.34;4957542;28;102125;-76
2023/07/25 05:30:43;;;;;;;3.87;3.47;;;;;;;18.80;100.00;95338.06;4961225;28;105128;-74
2023/07/25 05:33:10;;;;;;;4.07;3.47;;;;;;;18.90;100.00;95334.97;4973468;28;101983;-74
2023/07/25 05:35:37;;;;;;;4.50;4.10;;;;;;;18.47;100.00;95315.63;4985736;28;105314;-74
2023/07/25 05:38:07;;;;;;;4.67;4.17;;;;;;;18.29;100.00;95303.31;4953381;28;104276;-74
2023/07/25 05:40:34;;;;;;;5.67;3.53;;;;;;;17.86;100.00;95292.75;4956671;28;101916;-75
2023/07/25 05:43:04;;;;;;;3.73;3.20;;;;;;;17.77;100.00;95294.69;4973706;28;104917;-74
2023/07/25 05:45:31;;;;;;;3.70;3.27;;;;;;;17.88;100.00;95305.88;4987836;28;102896;-75
2023/07/25 05:47:58;;;;;;;3.70;3.30;;;;;;;18.11;100.00;95286.50;4994732;28;102030;-74
2023/07/25 05:50:25;;;;;;;5.03;3.83;;;;;;;17.82;100.00;95269.53;4971330;28;104652;-74
2023/07/25 05:52:54;;;;;;;3.93;3.63;;;;;;;17.79;100.00;95280.91;4963725;28;102004;-74
2023/07/25 05:55:21;;;;;;;3.53;3.23;;;;;;;17.74;100.00;95284.59;4961620;28;105356;-75
2023/07/25 05:57:48;;;;;;;5.10;3.70;;;;;;;18.12;100.00;95290.75;4971888;28;103188;-75
2023/07/25 06:00:24;;;;;;;3.67;3.30;;;;;;;18.23;100.00;95291.16;4965284;28;101958;-74
2023/07/25 06:02:53;;;;;;;3.37;3.00;;;;;;;18.41;100.00;95266.56;4973238;28;105189;-74
2023/07/25 06:05:26;;;;;;;3.23;2.93;;;;;;;18.38;100.00;95239.50;4969973;28;105644;-74
2023/07/25 06:07:59;;;;;;;5.47;3.40;;;;;;;18.46;100.00;95214.41;4954018;28;103539;-74
2023/07/25 06:10:29;;;;;;;3.50;3.20;;;;;;;18.55;100.00;95174.78;4974125;28;105650;-74
2023/07/25 06:12:59;;;;;;;3.27;3.00;;;;;;;18.36;100.00;95144.84;4973098;28;102037;-74
2023/07/25 06:15:30;;;;;;;3.27;2.97;;;;;;;18.12;100.00;95147.34;4972922;28;105146;-74
2023/07/25 06:18:06;;;;;;;4.83;3.20;;;;;;;17.62;100.00;95160.00;4972527;28;105079;-74
2023/07/25 06:20:33;;;;;;;3.23;2.90;;;;;;;17.45;100.00;95181.56;4955077;28;101997;-74
2023/07/25 06:23:05;;;;;;;4.60;3.00;;;;;;;16.88;100.00;95194.50;4972920;28;105381;-75
2023/07/25 06:25:35;;;;;;;4.07;3.13;;;;;;;16.89;100.00;95201.44;4972192;28;105165;-74
2023/07/25 06:28:14;;;;;;;3.63;3.33;;;;;;;16.81;100.00;95196.09;4972924;28;101892;-74
2023/07/25 06:30:46;;;;;;;4.40;3.60;;;;;;;16.77;100.00;95205.88;4971943;28;104189;-74
2023/07/25 06:33:20;;;;;;;5.27;3.73;;;;;;;16.90;100.00;95229.88;4975290;28;104037;-75
2023/07/25 06:35:47;;;;;;;4.93;3.73;;;;;;;16.93;100.00;95242.66;4972255;28;105463;-75
2023/07/25 06:38:14;;;;;;;5.83;4.03;;;;;;;16.75;100.00;95241.09;4968360;28;105806;-75
2023/07/25 06:40:49;;;;;;;4.20;3.80;;;;;;;16.89;100.00;95240.94;4957722;28;102093;-75
2023/07/25 06:43:18;;;;;;;4.43;3.80;;;;;;;17.14;100.00;95248.16;4972662;28;105429;-75
2023/07/25 06:49:11;;;;;;;4.40;4.00;;;;;;;17.24;100.00;95282.75;4973341;28;102075;-74
2023/07/25 06:51:38;;;;;;;7.17;4.30;;;;;;;16.97;100.00;95272.34;4968340;28;104893;-74
2023/07/25 06:54:14;;;;;;;4.47;4.07;;;;;;;17.04;100.00;95270.78;4971719;28;105824;-75
2023/07/25 06:56:41;;;;;;;4.60;4.20;;;;;;;17.30;100.00;95268.06;4982512;28;102301;-74
2023/07/25 06:59:08;;;;;;;4.00;3.70;;;;;;;17.57;100.00;95256.94;4966974;28;103256;-75
2023/07/25 07:01:35;;;;;;;4.80;4.40;;;;;;;17.61;100.00;95249.84;4959410;28;102016;-74
2023/07/25 07:04:02;;;;;;;3.67;3.37;;;;;;;17.74;100.00;95241.56;4977505;28;102711;-75
2023/07/25 07:06:30;;;;;;;5.00;4.50;;;;;;;17.69;100.00;95244.41;4972230;28;105557;-74
2023/07/25 07:08:57;;;;;;;4.30;3.90;;;;;;;17.78;100.00;95257.84;4978643;28;102018;-74
2023/07/25 07:11:24;;;;;;;4.30;3.83;;;;;;;17.88;100.00;95263.63;4979023;28;105263;-75
2023/07/25 07:13:51;;;;;;;4.23;3.90;;;;;;;18.07;100.00;95261.34;4978438;28;104182;-75
2023/07/25 07:16:18;;;;;;;5.53;4.60;;;;;;;17.84;100.00;95270.78;4978543;28;101938;-74
2023/07/25 07:18:46;;;;;;;5.50;4.10;;;;;;;17.85;100.00;95279.63;4979326;28;105510;-74
2023/07/25 07:21:13;;;;;;;5.37;4.87;;;;;;;18.07;100.00;95293.63;4978577;28;102211;-74
2023/07/25 07:23:41;;;;;;;4.63;4.23;;;;;;;17.95;100.00;95295.41;4976627;28;104895;-73
2023/07/25 07:26:08;;;;;;;4.87;4.30;;;;;;;17.77;100.00;95289.31;4958781;28;105513;-74
2023/07/25 07:28:35;;;;;;;4.97;4.17;;;;;;;17.64;100.00;95300.25;4978729;28;101898;-74
2023/07/25 07:31:02;;;;;;;4.10;3.60;;;;;;;17.56;100.00;95303.75;4965684;28;105126;-74
2023/07/25 07:33:31;;;;;;;3.37;3.07;;;;;;;17.39;100.00;95309.19;4979965;28;103042;-74
2023/07/25 07:35:58;;;;;;;3.63;2.60;;;;;;;17.47;100.00;95306.47;4958946;28;101910;-75
2023/07/25 07:38:25;;;;;;;7.33;2.73;;;;;;;17.57;100.00;95314.22;4975392;28;104016;-78
2023/07/25 07:40:54;;;;;;;3.30;2.80;;;;;;;17.85;100.00;95311.91;4962553;28;102014;-74
2023/07/25 07:43:21;;;;;;;2.93;2.50;;;;;;;18.02;100.00;95307.25;4970817;28;104985;-74
2023/07/25 07:45:49;;;;;;;3.33;2.40;;;;;;;18.23;100.00;95293.84;4967660;28;105670;-74
2023/07/25 07:48:16;;;;;;;4.63;2.70;;;;;;;18.15;100.00;95294.72;4976579;28;101846;-74
2023/07/25 07:50:43;;;;;;;3.93;2.93;;;;;;;18.15;100.00;95300.84;4973337;28;105103;-74
2023/07/25 07:53:10;;;;;;;4.50;2.70;;;;;;;18.28;100.00;95304.44;4977888;28;105234;-74
2023/07/25 07:55:37;;;;;;;4.97;2.30;;;;;;;18.08;100.00;95314.03;4977934;28;101931;-74
2023/07/25 07:58:06;;;;;;;2.50;2.17;;;;;;;17.96;100.00;95316.63;4975460;28;105792;-74
2023/07/25 08:00:33;;;;;;;2.70;2.33;;;;;;;18.04;100.00;95309.63;4966977;28;104057;-75
2023/07/25 08:03:00;;;;;;;3.27;2.40;;;;;;;17.82;100.00;95309.88;4977997;28;103832;-75
2023/07/25 08:05:29;;;;;;;3.70;2.60;;;;;;;17.82;100.00;95307.19;4976513;28;105356;-75
2023/07/25 08:07:56;;;;;;;2.70;2.20;;;;;;;17.99;100.00;95317.88;4972688;28;103364;-74
2023/07/25 08:10:25;;;;;;;2.77;2.53;;;;;;;18.39;100.00;95322.63;4973478;28;105380;-74
2023/07/25 08:12:52;;;;;;;4.30;2.47;;;;;;;18.33;100.00;95332.00;4958713;28;105598;-74
2023/07/25 08:15:21;;;;;;;4.07;2.60;;;;;;;18.41;100.00;95322.28;4963555;28;102185;-75
2023/07/25 08:17:48;;;;;;;2.80;2.60;;;;;;;18.53;100.00;95323.19;4987318;28;105179;-74
2023/07/25 08:20:16;;;;;;;2.90;2.20;;;;;;;18.78;100.00;95316.06;4938068;28;105087;-74
2023/07/25 08:22:43;;;;;;;2.63;2.37;;;;;;;19.00;100.00;95321.13;4974507;28;101902;-74
2023/07/25 08:25:11;;;;;;;3.33;2.57;;;;;;;19.44;100.00;95318.56;4970652;28;105060;-74
2023/07/25 08:27:38;;;;;;;2.77;2.53;;;;;;;19.56;100.00;95312.44;4971631;28;102059;-74
2023/07/25 08:30:07;;;;;;;2.57;2.37;;;;;;;19.37;100.00;95312.94;4971090;28;105087;-74
2023/07/25 08:32:36;;;;;;;2.50;2.30;;;;;;;19.38;100.00;95327.16;4973984;28;103998;-74
2023/07/25 08:35:03;;;;;;;2.97;2.67;;;;;;;19.02;100.00;95346.63;4974705;28;102150;-75
2023/07/25 08:37:30;;;;;;;3.03;2.73;;;;;;;18.81;100.00;95350.44;4974683;28;104190;-74
2023/07/25 08:39:57;;;;;;;2.67;2.40;;;;;;;18.71;100.00;95365.06;4974010;28;105336;-74
2023/07/25 08:42:25;;;;;;;3.30;2.53;;;;;;;18.34;100.00;95373.97;4992404;28;101889;-74
2023/07/25 08:44:53;;;;;;;3.87;2.30;;;;;;;18.07;100.00;95377.03;4994782;28;102866;-77
2023/07/25 08:47:23;;;;;;;2.70;2.50;;;;;;;18.04;100.00;95368.81;4974469;28;102072;-75
2023/07/25 08:49:54;;;;;;;3.03;2.73;;;;;;;18.07;100.00;95368.97;4974089;28;104128;-74
2023/07/25 08:52:23;;;;;;;2.90;2.70;;;;;;;18.22;100.00;95373.03;4973754;28;105376;-74
2023/07/25 08:54:50;;;;;;;2.97;2.67;;;;;;;18.51;100.00;95363.09;4974262;28;102225;-74
2023/07/25 08:57:18;;;;;;;2.80;2.53;;;;;;;18.52;100.00;95371.97;4990965;28;104839;-74
2023/07/25 08:59:46;;;;;;;3.57;2.60;;;;;;;18.49;100.00;95372.63;4973396;28;105588;-74
2023/07/25 09:02:14;;;;;;;2.90;2.70;;;;;;;18.57;100.00;95371.78;4991859;28;102092;-73
2023/07/25 09:04:55;;;;;;;3.57;2.60;;;;;;;18.72;100.00;95376.59;4992099;28;102976;-74
2023/07/25 09:07:24;;;;;;;3.50;2.80;;;;;;;18.75;100.00;95371.34;4914377;28;102755;-74
2023/07/25 09:09:51;;;;;;;3.33;2.60;;;;;;;18.94;100.00;95376.31;4894780;28;105350;-74
2023/07/25 09:12:19;;;;;;;3.13;2.80;;;;;;;19.06;100.00;95379.88;4894590;28;105701;-74
2023/07/25 09:14:46;;;;;;;3.00;2.80;;;;;;;19.11;100.00;95371.59;4895176;28;101923;-74
2023/07/25 09:17:13;;;;;;;3.20;2.73;;;;;;;19.04;100.00;95359.78;4895234;28;105760;-74
2023/07/25 09:19:41;;;;;;;3.27;2.93;;;;;;;19.00;100.00;95362.34;4893405;28;105667;-74
2023/07/25 09:22:28;;;;;;;2.83;2.63;;;;;;;19.13;100.00;95355.13;4895195;28;102121;-74
2023/07/25 09:24:56;;;;;;;5.27;3.00;;;;;;;19.24;100.00;95353.63;4894836;28;105229;-74
2023/07/25 09:27:23;;;;;;;3.60;3.30;;;;;;;19.10;100.00;95361.16;4894391;28;105199;-74
2023/07/25 09:29:52;;;;;;;3.00;2.63;;;;;;;19.24;100.00;95359.78;4897969;28;102122;-74
2023/07/25 09:32:21;;;;;;;2.80;2.60;;;;;;;19.39;100.00;95361.09;4894495;28;105352;-77
2023/07/25 09:34:55;;;;;;;3.63;2.90;;;;;;;19.61;100.00;95358.06;4895080;28;101994;-75
2023/07/25 09:37:22;;;;;;;2.60;2.40;;;;;;;19.92;100.00;95355.69;4911241;28;102865;-74
2023/07/25 09:39:51;;;;;;;2.67;2.47;;;;;;;20.10;100.00;95357.13;4894526;28;104403;-72
2023/07/25 09:42:22;;;;;;;3.43;2.50;;;;;;;20.35;100.00;95350.63;4910833;28;102097;-74
2023/07/25 09:44:51;;;;;;;2.80;2.60;;;;;;;20.07;100.00;95360.47;4957806;28;102638;-74
2023/07/25 09:47:22;;;;;;;2.60;2.40;;;;;;;20.02;100.00;95353.38;4972809;28;105447;-75
2023/07/25 09:49:51;;;;;;;3.30;2.67;;;;;;;20.07;100.00;95357.78;4994575;28;101997;-75
2023/07/25 09:52:18;;;;;;;4.17;2.73;;;;;;;19.86;100.00;95362.41;4971883;28;104692;-73
2023/07/25 09:54:45;;;;;;;2.90;2.53;;;;;;;19.43;100.00;95362.03;4970094;28;102240;-77
2023/07/25 09:57:13;;;;;;;2.10;2.00;;;;;;;19.23;100.00;95369.00;4969180;28;104938;-74
2023/07/25 09:59:40;;;;;;;2.20;1.97;;;;;;;19.17;100.00;95358.72;4954256;28;105840;-74
2023/07/25 10:02:07;;;;;;;4.20;2.40;;;;;;;18.95;100.00;95354.44;4953646;28;101956;-74
2023/07/25 10:04:37;;;;;;;2.23;2.13;;;;;;;18.68;100.00;95352.25;4953901;28;105207;-74
2023/07/25 10:07:05;;;;;;;2.60;2.40;;;;;;;18.60;100.00;95354.97;4988567;28;103036;-74
2023/07/25 10:09:32;;;;;;;4.43;2.37;;;;;;;18.58;100.00;95338.38;4973213;28;102032;-73
2023/07/25 10:11:59;;;;;;;2.17;1.97;;;;;;;18.28;100.00;95352.88;4975935;28;105516;-74
2023/07/25 10:14:27;;;;;;;3.63;1.90;;;;;;;18.21;100.00;95360.69;4970102;28;101934;-75
2023/07/25 10:16:55;;;;;;;2.00;1.90;;;;;;;18.37;100.00;95361.75;4969323;28;105144;-75
2023/07/25 10:19:21;;;;;;;3.40;1.90;;;;;;;18.04;100.00;95368.81;4972251;28;105658;-75
2023/07/25 10:21:50;;;;;;;2.40;1.97;;;;;;;18.01;100.00;95374.81;4970130;28;101930;-74
2023/07/25 10:24:18;;;;;;;2.27;2.07;;;;;;;18.12;100.00;95376.06;4971976;28;102623;-75
2023/07/25 10:26:56;;;;;;;2.47;2.03;;;;;;;18.17;100.00;95362.44;4952837;28;103914;-75
2023/07/25 10:29:42;;;;;;;1.93;1.73;;;;;;;18.22;100.00;95364.94;4953771;28;102019;-75
2023/07/25 10:32:13;;;;;;;2.20;2.00;;;;;;;18.08;100.00;95351.69;4952806;28;105572;-75
2023/07/25 10:34:51;;;;;;;4.93;2.07;;;;;;;18.26;100.00;95344.34;4973541;28;105060;-75
2023/07/25 10:37:28;;;;;;;3.40;2.00;;;;;;;18.10;100.00;95346.00;4971316;28;104991;-75
2023/07/25 10:40:09;;;;;;;2.07;1.70;;;;;;;17.89;100.00;95372.81;4972216;28;105327;-75
2023/07/25 10:42:42;;;;;;;2.30;2.10;;;;;;;17.85;100.00;95368.38;4972656;28;102158;-75
2023/07/25 10:45:22;;;;;;;2.43;1.97;;;;;;;17.77;100.00;95353.06;4972834;28;105540;-75
2023/07/25 10:47:49;;;;;;;2.47;1.80;;;;;;;18.02;100.00;95341.44;4974137;28;103255;-76
2023/07/25 10:50:20;;;;;;;2.20;2.00;;;;;;;17.99;100.00;95334.78;4953894;28;101992;-75
2023/07/25 10:52:48;;;;;;;2.40;2.20;;;;;;;17.96;100.00;95318.50;4967106;28;105309;-75
2023/07/25 10:55:15;;;;;;;2.40;2.20;;;;;;;18.43;100.00;95317.38;4971967;28;105401;-76
2023/07/25 10:57:42;;;;;;;2.23;1.70;;;;;;;18.48;100.00;95317.19;4985436;28;101888;-74
2023/07/25 11:00:11;;;;;;;2.10;2.00;;;;;;;18.65;100.00;95311.72;4968192;28;105251;-74
2023/07/25 11:02:42;;;;;;;2.47;2.00;;;;;;;19.04;100.00;95312.06;4970723;28;101998;-74
2023/07/25 11:05:23;;;;;;;2.37;2.17;;;;;;;19.30;100.00;95311.88;4967446;28;105481;-74
2023/07/25 11:07:53;;;;;;;4.50;2.37;;;;;;;19.24;100.00;95302.41;4959021;28;104318;-75
2023/07/25 11:10:21;;;;;;;2.30;2.07;;;;;;;18.84;100.00;95309.34;4936716;28;102122;-74
2023/07/25 11:12:52;;;;;;;2.13;1.93;;;;;;;19.22;100.00;95324.31;4972527;28;102644;-74
2023/07/25 11:15:19;;;;;;;2.60;2.30;;;;;;;19.27;100.00;95320.63;4965456;28;105371;-73
2023/07/25 11:17:47;;;;;;;2.23;2.03;;;;;;;19.35;100.00;95312.44;4966810;28;102163;-74
2023/07/25 11:20:16;;;;;;;2.43;2.23;;;;;;;19.66;100.00;95306.59;4975239;28;104881;-74
2023/07/25 11:22:44;;;;;;;2.30;2.10;;;;;;;19.76;100.00;95306.19;4972123;28;102222;-74
2023/07/25 11:25:12;;;;;;;2.23;2.03;;;;;;;19.29;100.00;95300.28;4988466;28;104002;-75